createdAt,value
2023-04-30T00:00:18.354Z,1015.16
2023-04-30T00:01:18.317Z,1015.20
2023-04-30T00:02:18.347Z,1015.19
2023-04-30T00:03:22.744Z,1015.19
2023-04-30T00:04:18.442Z,1015.22
2023-04-30T00:05:18.304Z,1015.19
2023-04-30T00:06:18.329Z,1015.19
2023-04-30T00:07:18.289Z,1015.23
2023-04-30T00:08:19.654Z,1015.22
2023-04-30T00:09:19.312Z,1015.21
2023-04-30T00:10:19.671Z,1015.21
2023-04-30T00:11:19.098Z,1015.26
2023-04-30T00:12:18.277Z,1015.25
2023-04-30T00:13:18.260Z,1015.23
2023-04-30T00:14:18.259Z,1015.22
2023-04-30T00:15:19.275Z,1015.23
2023-04-30T00:16:18.274Z,1015.26
2023-04-30T00:17:18.243Z,1015.23
2023-04-30T00:18:18.257Z,1015.24
2023-04-30T00:19:18.237Z,1015.24
2023-04-30T00:20:18.237Z,1015.26
2023-04-30T00:21:19.237Z,1015.28
2023-04-30T00:22:18.228Z,1015.32
2023-04-30T00:23:19.101Z,1015.28
2023-04-30T00:24:18.218Z,1015.31
2023-04-30T00:25:18.236Z,1015.32
2023-04-30T00:26:18.213Z,1015.35
2023-04-30T00:27:19.213Z,1015.38
2023-04-30T00:28:18.195Z,1015.39
2023-04-30T00:29:18.200Z,1015.38
2023-04-30T00:30:18.198Z,1015.35
2023-04-30T00:31:19.104Z,1015.38
2023-04-30T00:32:18.254Z,1015.41
2023-04-30T00:33:19.207Z,1015.44
2023-04-30T00:34:19.101Z,1015.42
2023-04-30T00:35:18.174Z,1015.40
2023-04-30T00:36:18.180Z,1015.37
2023-04-30T00:37:18.156Z,1015.43
2023-04-30T00:38:18.165Z,1015.42
2023-04-30T00:39:19.159Z,1015.45
2023-04-30T00:40:18.146Z,1015.46
2023-04-30T00:41:18.144Z,1015.44
2023-04-30T00:42:18.147Z,1015.48
2023-04-30T00:43:19.101Z,1015.49
2023-04-30T00:44:18.632Z,1015.49
2023-04-30T00:45:19.179Z,1015.50
2023-04-30T00:46:18.168Z,1015.50
2023-04-30T00:47:18.118Z,1015.50
2023-04-30T00:48:18.109Z,1015.50
2023-04-30T00:49:18.118Z,1015.54
2023-04-30T00:50:18.109Z,1015.57
2023-04-30T00:51:19.098Z,1015.60
2023-04-30T00:52:18.111Z,1015.59
2023-04-30T00:53:18.938Z,1015.62
2023-04-30T00:54:18.105Z,1015.60
2023-04-30T00:55:18.085Z,1015.63
2023-04-30T00:56:18.078Z,1015.66
2023-04-30T00:57:19.079Z,1015.69
2023-04-30T00:58:18.061Z,1015.68
2023-04-30T00:59:18.060Z,1015.72
2023-04-30T01:00:18.059Z,1015.71
2023-04-30T01:01:18.080Z,1015.73
2023-04-30T01:02:18.101Z,1015.75
2023-04-30T01:03:19.125Z,1015.77
2023-04-30T01:04:18.077Z,1015.82
2023-04-30T01:05:18.026Z,1015.77
2023-04-30T01:06:18.055Z,1015.81
2023-04-30T01:07:18.020Z,1015.86
2023-04-30T01:08:18.016Z,1015.80
2023-04-30T01:09:19.023Z,1015.85
2023-04-30T01:10:18.017Z,1015.84
2023-04-30T01:11:18.016Z,1015.88
2023-04-30T01:12:18.014Z,1015.87
2023-04-30T01:13:18.011Z,1015.90
2023-04-30T01:14:17.984Z,1015.87
2023-04-30T01:15:19.004Z,1015.91
2023-04-30T01:16:18.019Z,1015.89
2023-04-30T01:17:17.972Z,1015.91
2023-04-30T01:18:18.077Z,1015.93
2023-04-30T01:19:18.604Z,1015.93
2023-04-30T01:20:18.609Z,1015.93
2023-04-30T01:21:18.983Z,1015.95
2023-04-30T01:22:17.954Z,1015.93
2023-04-30T01:23:17.960Z,1016.00
2023-04-30T01:24:17.945Z,1015.95
2023-04-30T01:25:17.942Z,1015.94
2023-04-30T01:26:17.933Z,1016.00
2023-04-30T01:27:19.608Z,1015.96
2023-04-30T01:28:17.934Z,1015.99
2023-04-30T01:29:17.913Z,1016.01
2023-04-30T01:30:17.918Z,1015.97
2023-04-30T01:31:17.924Z,1015.98
2023-04-30T01:32:17.896Z,1016.01
2023-04-30T01:33:19.609Z,1015.98
2023-04-30T01:34:18.999Z,1015.96
2023-04-30T01:35:17.895Z,1015.99
2023-04-30T01:36:17.883Z,1015.97
2023-04-30T01:37:17.871Z,1015.96
2023-04-30T01:38:17.890Z,1015.99
2023-04-30T01:39:18.889Z,1016.01
2023-04-30T01:40:17.871Z,1016.02
2023-04-30T01:41:17.852Z,1016.00
2023-04-30T01:42:17.866Z,1016.04
2023-04-30T01:43:17.864Z,1016.05
2023-04-30T01:44:17.875Z,1016.07
2023-04-30T01:45:20.172Z,1016.10
2023-04-30T01:46:17.925Z,1016.08
2023-04-30T01:47:17.844Z,1016.09
2023-04-30T01:48:17.859Z,1016.08
2023-04-30T01:49:17.822Z,1016.04
2023-04-30T01:50:17.814Z,1016.11
2023-04-30T01:51:18.832Z,1016.14
2023-04-30T01:52:17.810Z,1016.12
2023-04-30T01:53:17.819Z,1016.13
2023-04-30T01:54:17.796Z,1016.17
2023-04-30T01:55:17.814Z,1016.19
2023-04-30T01:56:17.792Z,1016.20
2023-04-30T01:57:18.798Z,1016.21
2023-04-30T01:58:17.787Z,1016.21
2023-04-30T01:59:17.851Z,1016.23
2023-04-30T02:00:17.785Z,1016.26
2023-04-30T02:01:17.816Z,1016.21
2023-04-30T02:02:18.615Z,1016.25
2023-04-30T02:03:18.888Z,1016.22
2023-04-30T02:04:17.778Z,1016.22
2023-04-30T02:05:17.762Z,1016.24
2023-04-30T02:06:17.768Z,1016.28
2023-04-30T02:07:17.728Z,1016.29
2023-04-30T02:08:17.729Z,1016.31
2023-04-30T02:09:19.613Z,1016.30
2023-04-30T02:10:17.719Z,1016.34
2023-04-30T02:11:17.740Z,1016.32
2023-04-30T02:12:17.726Z,1016.37
2023-04-30T02:13:17.716Z,1016.36
2023-04-30T02:14:18.211Z,1016.33
2023-04-30T02:15:18.701Z,1016.36
2023-04-30T02:16:19.216Z,1016.39
2023-04-30T02:17:17.685Z,1016.39
2023-04-30T02:18:17.753Z,1016.34
2023-04-30T02:19:17.681Z,1016.37
2023-04-30T02:20:17.690Z,1016.44
2023-04-30T02:21:18.690Z,1016.38
2023-04-30T02:22:17.683Z,1016.45
2023-04-30T02:23:17.672Z,1016.45
2023-04-30T02:24:17.651Z,1016.45
2023-04-30T02:25:17.641Z,1016.51
2023-04-30T02:26:17.651Z,1016.51
2023-04-30T02:27:18.663Z,1016.50
2023-04-30T02:28:18.117Z,1016.46
2023-04-30T02:29:17.626Z,1016.50
2023-04-30T02:30:17.630Z,1016.50
2023-04-30T02:31:17.657Z,1016.50
2023-04-30T02:32:18.098Z,1016.47
2023-04-30T02:33:18.615Z,1016.48
2023-04-30T02:34:17.616Z,1016.54
2023-04-30T02:35:18.132Z,1016.47
2023-04-30T02:36:17.615Z,1016.53
2023-04-30T02:37:17.608Z,1016.53
2023-04-30T02:38:17.581Z,1016.54
2023-04-30T02:39:18.586Z,1016.54
2023-04-30T02:40:17.573Z,1016.56
2023-04-30T02:41:17.575Z,1016.54
2023-04-30T02:42:17.564Z,1016.57
2023-04-30T02:43:17.555Z,1016.57
2023-04-30T02:44:17.543Z,1016.57
2023-04-30T02:45:18.603Z,1016.55
2023-04-30T02:46:17.590Z,1016.55
2023-04-30T02:47:17.545Z,1016.56
2023-04-30T02:48:17.560Z,1016.61
2023-04-30T02:49:18.122Z,1016.62
2023-04-30T02:50:18.121Z,1016.60
2023-04-30T02:51:18.532Z,1016.63
2023-04-30T02:52:17.516Z,1016.66
2023-04-30T02:53:18.016Z,1016.66
2023-04-30T02:54:17.505Z,1016.60
2023-04-30T02:55:17.522Z,1016.61
2023-04-30T02:56:18.128Z,1016.61
2023-04-30T02:57:18.487Z,1016.63
2023-04-30T02:58:18.116Z,1016.59
2023-04-30T02:59:17.485Z,1016.62
2023-04-30T03:00:17.479Z,1016.62
2023-04-30T03:01:17.506Z,1016.65
2023-04-30T03:02:17.510Z,1016.67
2023-04-30T03:03:18.564Z,1016.73
2023-04-30T03:04:18.613Z,1016.73
2023-04-30T03:05:17.444Z,1016.75
2023-04-30T03:06:17.485Z,1016.73
2023-04-30T03:07:17.437Z,1016.75
2023-04-30T03:08:17.416Z,1016.74
2023-04-30T03:09:18.439Z,1016.73
2023-04-30T03:10:17.416Z,1016.79
2023-04-30T03:11:17.409Z,1016.76
2023-04-30T03:12:18.135Z,1016.78
2023-04-30T03:13:17.399Z,1016.78
2023-04-30T03:14:17.399Z,1016.78
2023-04-30T03:15:18.396Z,1016.81
2023-04-30T03:16:17.400Z,1016.84
2023-04-30T03:17:17.379Z,1016.86
2023-04-30T03:18:17.354Z,1016.89
2023-04-30T03:19:17.393Z,1016.87
2023-04-30T03:20:17.370Z,1016.88
2023-04-30T03:21:18.356Z,1016.86
2023-04-30T03:22:17.357Z,1016.94
2023-04-30T03:23:17.343Z,1016.92
2023-04-30T03:24:17.340Z,1016.95
2023-04-30T03:25:17.334Z,1016.92
2023-04-30T03:26:18.125Z,1016.94
2023-04-30T03:27:18.335Z,1016.90
2023-04-30T03:28:17.346Z,1016.93
2023-04-30T03:29:17.329Z,1016.92
2023-04-30T03:30:18.132Z,1016.93
2023-04-30T03:31:17.318Z,1016.93
2023-04-30T03:32:17.320Z,1016.92
2023-04-30T03:33:18.408Z,1016.94
2023-04-30T03:34:17.292Z,1017.00
2023-04-30T03:35:17.394Z,1016.94
2023-04-30T03:36:18.136Z,1016.94
2023-04-30T03:37:17.287Z,1016.92
2023-04-30T03:38:17.284Z,1016.95
2023-04-30T03:39:18.271Z,1016.95
2023-04-30T03:40:18.123Z,1016.97
2023-04-30T03:41:17.244Z,1017.00
2023-04-30T03:42:17.307Z,1016.99
2023-04-30T03:43:17.246Z,1017.02
2023-04-30T03:44:17.259Z,1016.98
2023-04-30T03:45:19.153Z,1017.01
2023-04-30T03:46:17.243Z,1016.96
2023-04-30T03:47:17.236Z,1017.00
2023-04-30T03:48:17.244Z,1017.02
2023-04-30T03:49:17.219Z,1017.00
2023-04-30T03:50:17.197Z,1017.05
2023-04-30T03:51:18.215Z,1017.12
2023-04-30T03:52:17.198Z,1017.09
2023-04-30T03:53:17.184Z,1017.08
2023-04-30T03:54:18.138Z,1017.09
2023-04-30T03:55:17.176Z,1017.10
2023-04-30T03:56:17.168Z,1017.10
2023-04-30T03:57:18.178Z,1017.14
2023-04-30T03:58:17.155Z,1017.15
2023-04-30T03:59:17.159Z,1017.14
2023-04-30T04:00:19.233Z,1017.17
2023-04-30T04:01:17.636Z,1017.16
2023-04-30T04:02:17.171Z,1017.19
2023-04-30T04:03:18.197Z,1017.23
2023-04-30T04:04:17.136Z,1017.21
2023-04-30T04:05:17.115Z,1017.23
2023-04-30T04:06:17.150Z,1017.23
2023-04-30T04:07:17.130Z,1017.25
2023-04-30T04:08:17.636Z,1017.26
2023-04-30T04:09:18.124Z,1017.24
2023-04-30T04:10:17.087Z,1017.28
2023-04-30T04:11:17.101Z,1017.29
2023-04-30T04:12:17.634Z,1017.31
2023-04-30T04:13:18.138Z,1017.33
2023-04-30T04:14:18.191Z,1017.34
2023-04-30T04:15:18.086Z,1017.35
2023-04-30T04:16:17.129Z,1017.34
2023-04-30T04:17:17.070Z,1017.35
2023-04-30T04:18:18.213Z,1017.32
2023-04-30T04:19:17.635Z,1017.37
2023-04-30T04:20:17.064Z,1017.37
2023-04-30T04:21:18.050Z,1017.34
2023-04-30T04:22:17.647Z,1017.39
2023-04-30T04:23:17.040Z,1017.41
2023-04-30T04:24:17.023Z,1017.39
2023-04-30T04:25:17.039Z,1017.39
2023-04-30T04:26:17.014Z,1017.40
2023-04-30T04:27:20.135Z,1017.40
2023-04-30T04:28:17.011Z,1017.42
2023-04-30T04:29:16.989Z,1017.44
2023-04-30T04:30:16.988Z,1017.45
2023-04-30T04:31:17.663Z,1017.43
2023-04-30T04:32:16.972Z,1017.46
2023-04-30T04:33:17.983Z,1017.46
2023-04-30T04:34:16.961Z,1017.49
2023-04-30T04:35:16.966Z,1017.49
2023-04-30T04:36:16.950Z,1017.56
2023-04-30T04:37:17.704Z,1017.57
2023-04-30T04:38:16.939Z,1017.56
2023-04-30T04:39:17.990Z,1017.55
2023-04-30T04:40:16.957Z,1017.58
2023-04-30T04:41:16.920Z,1017.57
2023-04-30T04:42:19.150Z,1017.60
2023-04-30T04:43:16.928Z,1017.59
2023-04-30T04:44:16.928Z,1017.61
2023-04-30T04:45:17.906Z,1017.63
2023-04-30T04:46:16.928Z,1017.61
2023-04-30T04:47:17.375Z,1017.61
2023-04-30T04:48:16.883Z,1017.62
2023-04-30T04:49:16.889Z,1017.67
2023-04-30T04:50:16.886Z,1017.71
2023-04-30T04:51:17.893Z,1017.74
2023-04-30T04:52:16.877Z,1017.68
2023-04-30T04:53:16.880Z,1017.74
2023-04-30T04:54:16.848Z,1017.75
2023-04-30T04:55:16.840Z,1017.79
2023-04-30T04:56:17.655Z,1017.78
2023-04-30T04:57:20.142Z,1017.80
2023-04-30T04:58:16.834Z,1017.84
2023-04-30T04:59:17.638Z,1017.82
2023-04-30T05:00:16.820Z,1017.85
2023-04-30T05:01:17.663Z,1017.88
2023-04-30T05:02:16.810Z,1017.87
2023-04-30T05:03:18.715Z,1017.90
2023-04-30T05:04:16.807Z,1017.88
2023-04-30T05:05:16.789Z,1017.90
2023-04-30T05:06:16.812Z,1017.92
2023-04-30T05:07:16.780Z,1017.93
2023-04-30T05:08:16.782Z,1017.94
2023-04-30T05:09:18.667Z,1017.98
2023-04-30T05:10:17.644Z,1017.94
2023-04-30T05:11:16.765Z,1017.95
2023-04-30T05:12:16.743Z,1017.98
2023-04-30T05:13:16.754Z,1017.98
2023-04-30T05:14:16.736Z,1018.02
2023-04-30T05:15:17.753Z,1018.06
2023-04-30T05:16:16.792Z,1018.04
2023-04-30T05:17:16.733Z,1018.08
2023-04-30T05:18:17.649Z,1018.08
2023-04-30T05:19:16.707Z,1018.05
2023-04-30T05:20:17.189Z,1018.09
2023-04-30T05:21:17.715Z,1018.07
2023-04-30T05:22:17.654Z,1018.11
2023-04-30T05:23:16.696Z,1018.10
2023-04-30T05:24:17.648Z,1018.14
2023-04-30T05:25:16.688Z,1018.16
2023-04-30T05:26:16.686Z,1018.15
2023-04-30T05:27:17.684Z,1018.18
2023-04-30T05:28:16.716Z,1018.19
2023-04-30T05:29:17.643Z,1018.21
2023-04-30T05:30:16.653Z,1018.23
2023-04-30T05:31:17.507Z,1018.25
2023-04-30T05:32:16.661Z,1018.27
2023-04-30T05:33:17.649Z,1018.26
2023-04-30T05:34:16.635Z,1018.30
2023-04-30T05:35:16.616Z,1018.28
2023-04-30T05:36:17.140Z,1018.27
2023-04-30T05:37:16.613Z,1018.29
2023-04-30T05:38:16.648Z,1018.30
2023-04-30T05:39:17.647Z,1018.29
2023-04-30T05:40:16.600Z,1018.29
2023-04-30T05:41:16.609Z,1018.33
2023-04-30T05:42:16.600Z,1018.32
2023-04-30T05:43:16.594Z,1018.33
2023-04-30T05:44:16.585Z,1018.34
2023-04-30T05:45:17.645Z,1018.36
2023-04-30T05:46:16.623Z,1018.28
2023-04-30T05:47:16.581Z,1018.40
2023-04-30T05:48:16.619Z,1018.51
2023-04-30T05:49:16.563Z,1018.72
2023-04-30T05:50:17.168Z,1018.87
2023-04-30T05:51:17.592Z,1018.82
2023-04-30T05:52:17.142Z,1018.91
2023-04-30T05:53:16.542Z,1018.94
2023-04-30T05:54:16.537Z,1019.03
2023-04-30T05:55:16.587Z,1019.08
2023-04-30T05:56:17.149Z,1019.08
2023-04-30T05:57:17.575Z,1019.07
2023-04-30T05:58:16.536Z,1019.06
2023-04-30T05:59:16.594Z,1018.99
2023-04-30T06:00:16.572Z,1019.07
2023-04-30T06:01:16.549Z,1019.06
2023-04-30T06:02:17.759Z,1019.09
2023-04-30T06:03:17.657Z,1019.17
2023-04-30T06:04:16.575Z,1019.14
2023-04-30T06:05:16.632Z,1019.22
2023-04-30T06:06:17.191Z,1019.22
2023-04-30T06:07:16.569Z,1019.21
2023-04-30T06:08:16.637Z,1019.26
2023-04-30T06:09:17.618Z,1019.30
2023-04-30T06:10:17.162Z,1019.37
2023-04-30T06:11:16.612Z,1019.32
2023-04-30T06:12:16.964Z,1019.06
2023-04-30T06:13:16.628Z,1019.02
2023-04-30T06:14:16.622Z,1018.98
2023-04-30T06:15:17.673Z,1018.97
2023-04-30T06:16:16.830Z,1018.96
2023-04-30T06:17:16.672Z,1018.94
2023-04-30T06:18:16.657Z,1018.95
2023-04-30T06:19:16.679Z,1018.99
2023-04-30T06:20:16.667Z,1019.01
2023-04-30T06:21:17.700Z,1018.98
2023-04-30T06:22:16.698Z,1018.98
2023-04-30T06:23:16.705Z,1018.97
2023-04-30T06:24:16.714Z,1019.03
2023-04-30T06:25:16.738Z,1019.01
2023-04-30T06:26:16.726Z,1019.01
2023-04-30T06:27:17.754Z,1019.04
2023-04-30T06:28:16.751Z,1019.08
2023-04-30T06:29:17.682Z,1019.09
2023-04-30T06:30:16.801Z,1019.04
2023-04-30T06:31:17.760Z,1019.08
2023-04-30T06:32:16.843Z,1019.09
2023-04-30T06:33:17.827Z,1019.14
2023-04-30T06:34:16.884Z,1019.17
2023-04-30T06:35:17.697Z,1019.17
2023-04-30T06:36:16.851Z,1019.18
2023-04-30T06:37:16.842Z,1019.17
2023-04-30T06:38:16.859Z,1019.17
2023-04-30T06:39:17.901Z,1019.20
2023-04-30T06:40:16.884Z,1019.16
2023-04-30T06:41:16.912Z,1019.20
2023-04-30T06:42:17.685Z,1019.16
2023-04-30T06:43:16.921Z,1019.17
2023-04-30T06:44:17.485Z,1019.21
2023-04-30T06:45:17.952Z,1019.16
2023-04-30T06:46:16.999Z,1019.16
2023-04-30T06:47:17.715Z,1019.17
2023-04-30T06:48:16.966Z,1019.15
2023-04-30T06:49:16.987Z,1019.16
2023-04-30T06:50:16.995Z,1019.18
2023-04-30T06:51:18.071Z,1019.17
2023-04-30T06:52:17.010Z,1019.16
2023-04-30T06:53:17.037Z,1019.15
2023-04-30T06:54:17.123Z,1019.18
2023-04-30T06:55:17.059Z,1019.19
2023-04-30T06:56:17.065Z,1019.22
2023-04-30T06:57:18.104Z,1019.21
2023-04-30T06:58:17.089Z,1019.19
2023-04-30T06:59:17.188Z,1019.20
2023-04-30T07:00:17.136Z,1019.15
2023-04-30T07:01:17.164Z,1019.19
2023-04-30T07:02:17.631Z,1019.14
2023-04-30T07:03:18.319Z,1019.15
2023-04-30T07:04:17.186Z,1019.15
2023-04-30T07:05:17.183Z,1019.13
2023-04-30T07:06:17.266Z,1019.11
2023-04-30T07:07:18.223Z,1019.14
2023-04-30T07:08:17.715Z,1019.14
2023-04-30T07:09:18.249Z,1019.14
2023-04-30T07:10:17.249Z,1019.13
2023-04-30T07:11:17.634Z,1019.19
2023-04-30T07:12:17.271Z,1019.21
2023-04-30T07:13:17.287Z,1019.15
2023-04-30T07:14:17.368Z,1019.20
2023-04-30T07:15:18.334Z,1019.17
2023-04-30T07:16:19.726Z,1019.11
2023-04-30T07:17:17.473Z,1019.18
2023-04-30T07:18:17.375Z,1019.17
2023-04-30T07:19:17.384Z,1019.16
2023-04-30T07:20:17.377Z,1019.17
2023-04-30T07:21:18.475Z,1019.17
2023-04-30T07:22:17.454Z,1019.17
2023-04-30T07:23:17.504Z,1019.19
2023-04-30T07:24:17.429Z,1019.21
2023-04-30T07:25:18.228Z,1019.24
2023-04-30T07:26:17.477Z,1019.23
2023-04-30T07:27:18.486Z,1019.20
2023-04-30T07:28:18.210Z,1019.21
2023-04-30T07:29:17.496Z,1019.24
2023-04-30T07:30:18.214Z,1019.21
2023-04-30T07:31:17.557Z,1019.19
2023-04-30T07:32:17.538Z,1019.24
2023-04-30T07:33:18.630Z,1019.22
2023-04-30T07:34:17.576Z,1019.24
2023-04-30T07:35:18.215Z,1019.26
2023-04-30T07:36:17.606Z,1019.26
2023-04-30T07:37:18.236Z,1019.25
2023-04-30T07:38:17.622Z,1019.24
2023-04-30T07:39:18.652Z,1019.27
2023-04-30T07:40:25.514Z,1019.24
2023-04-30T07:41:17.795Z,1019.23
2023-04-30T07:42:18.226Z,1019.24
2023-04-30T07:43:17.706Z,1019.26
2023-04-30T07:44:17.725Z,1019.23
2023-04-30T07:45:19.727Z,1019.24
2023-04-30T07:46:17.766Z,1019.23
2023-04-30T07:47:17.788Z,1019.22
2023-04-30T07:48:17.981Z,1019.22
2023-04-30T07:49:18.737Z,1019.23
2023-04-30T07:50:17.815Z,1019.28
2023-04-30T07:51:18.842Z,1019.28
2023-04-30T07:52:17.835Z,1019.29
2023-04-30T07:53:17.862Z,1019.27
2023-04-30T07:54:17.854Z,1019.29
2023-04-30T07:55:17.884Z,1019.31
2023-04-30T07:56:17.884Z,1019.30
2023-04-30T07:57:19.731Z,1019.22
2023-04-30T07:58:17.903Z,1019.29
2023-04-30T07:59:17.916Z,1019.31
2023-04-30T08:00:18.743Z,1019.17
2023-04-30T08:01:17.990Z,1019.27
2023-04-30T08:02:18.049Z,1019.30
2023-04-30T08:03:19.114Z,1019.27
2023-04-30T08:04:18.030Z,1019.28
2023-04-30T08:05:18.030Z,1019.26
2023-04-30T08:06:18.049Z,1019.25
2023-04-30T08:07:18.777Z,1019.26
2023-04-30T08:08:18.767Z,1019.25
2023-04-30T08:09:19.075Z,1019.20
2023-04-30T08:10:18.074Z,1019.21
2023-04-30T08:11:19.308Z,1019.22
2023-04-30T08:12:18.126Z,1019.23
2023-04-30T08:13:18.115Z,1019.20
2023-04-30T08:14:18.210Z,1019.20
2023-04-30T08:15:19.182Z,1019.18
2023-04-30T08:16:18.184Z,1019.26
2023-04-30T08:17:18.190Z,1019.25
2023-04-30T08:18:18.752Z,1019.23
2023-04-30T08:19:18.160Z,1019.24
2023-04-30T08:20:18.219Z,1019.22
2023-04-30T08:21:19.197Z,1019.25
2023-04-30T08:22:18.250Z,1019.23
2023-04-30T08:23:18.254Z,1019.22
2023-04-30T08:24:18.770Z,1019.25
2023-04-30T08:25:18.232Z,1019.23
2023-04-30T08:26:18.268Z,1019.26
2023-04-30T08:27:19.289Z,1019.25
2023-04-30T08:28:24.263Z,1019.23
2023-04-30T08:29:18.254Z,1019.26
2023-04-30T08:30:18.764Z,1019.22
2023-04-30T08:31:18.291Z,1019.24
2023-04-30T08:32:18.296Z,1019.26
2023-04-30T08:33:19.369Z,1019.25
2023-04-30T08:34:18.294Z,1019.24
2023-04-30T08:35:18.273Z,1019.19
2023-04-30T08:36:18.293Z,1019.22
2023-04-30T08:37:18.282Z,1019.28
2023-04-30T08:38:18.291Z,1019.23
2023-04-30T08:39:19.309Z,1019.22
2023-04-30T08:40:18.310Z,1019.25
2023-04-30T08:41:18.299Z,1019.21
2023-04-30T08:42:18.301Z,1019.24
2023-04-30T08:43:18.306Z,1019.23
2023-04-30T08:44:19.332Z,1019.19
2023-04-30T08:45:19.320Z,1019.24
2023-04-30T08:46:18.367Z,1019.23
2023-04-30T08:47:18.338Z,1019.19
2023-04-30T08:48:18.346Z,1019.22
2023-04-30T08:49:18.329Z,1019.20
2023-04-30T08:50:18.400Z,1019.23
2023-04-30T08:51:19.354Z,1019.23
2023-04-30T08:52:18.339Z,1019.19
2023-04-30T08:53:18.336Z,1019.22
2023-04-30T08:54:18.354Z,1019.21
2023-04-30T08:55:18.354Z,1019.16
2023-04-30T08:56:18.481Z,1019.16
2023-04-30T08:57:19.350Z,1019.14
2023-04-30T08:58:19.279Z,1019.18
2023-04-30T08:59:18.368Z,1019.17
2023-04-30T09:00:18.405Z,1019.17
2023-04-30T09:01:18.406Z,1019.12
2023-04-30T09:02:19.969Z,1019.19
2023-04-30T09:03:19.409Z,1019.16
2023-04-30T09:04:18.359Z,1019.17
2023-04-30T09:05:18.357Z,1019.21
2023-04-30T09:06:18.498Z,1019.22
2023-04-30T09:07:18.374Z,1019.21
2023-04-30T09:08:18.365Z,1019.20
2023-04-30T09:09:19.362Z,1019.19
2023-04-30T09:10:18.390Z,1019.21
2023-04-30T09:11:18.399Z,1019.24
2023-04-30T09:12:20.025Z,1019.26
2023-04-30T09:13:18.378Z,1019.26
2023-04-30T09:14:18.351Z,1019.31
2023-04-30T09:15:19.351Z,1019.28
2023-04-30T09:16:18.423Z,1019.29
2023-04-30T09:17:18.351Z,1019.27
2023-04-30T09:18:19.944Z,1019.27
2023-04-30T09:19:19.298Z,1019.31
2023-04-30T09:20:18.397Z,1019.32
2023-04-30T09:21:19.365Z,1019.32
2023-04-30T09:22:18.354Z,1019.28
2023-04-30T09:23:18.408Z,1019.27
2023-04-30T09:24:18.872Z,1019.21
2023-04-30T09:25:18.355Z,1019.20
2023-04-30T09:26:20.018Z,1019.22
2023-04-30T09:27:19.374Z,1019.23
2023-04-30T09:28:19.841Z,1019.23
2023-04-30T09:29:18.356Z,1019.24
2023-04-30T09:30:18.377Z,1019.22
2023-04-30T09:31:19.427Z,1019.19
2023-04-30T09:32:18.922Z,1019.20
2023-04-30T09:33:19.395Z,1019.24
2023-04-30T09:34:18.349Z,1019.22
2023-04-30T09:35:18.350Z,1019.27
2023-04-30T09:36:18.354Z,1019.28
2023-04-30T09:37:18.380Z,1019.28
2023-04-30T09:38:18.353Z,1019.29
2023-04-30T09:39:19.357Z,1019.30
2023-04-30T09:40:18.348Z,1019.28
2023-04-30T09:41:18.357Z,1019.28
2023-04-30T09:42:18.862Z,1019.27
2023-04-30T09:43:18.346Z,1019.30
2023-04-30T09:44:18.348Z,1019.29
2023-04-30T09:45:19.358Z,1019.32
2023-04-30T09:46:18.435Z,1019.32
2023-04-30T09:47:18.344Z,1019.32
2023-04-30T09:48:19.314Z,1019.27
2023-04-30T09:49:18.374Z,1019.29
2023-04-30T09:50:18.354Z,1019.31
2023-04-30T09:51:19.367Z,1019.30
2023-04-30T09:52:18.338Z,1019.30
2023-04-30T09:53:18.347Z,1019.33
2023-04-30T09:54:19.361Z,1019.25
2023-04-30T09:55:18.342Z,1019.23
2023-04-30T09:56:18.364Z,1019.21
2023-04-30T09:57:19.364Z,1019.19
2023-04-30T09:58:18.381Z,1019.16
2023-04-30T09:59:18.349Z,1019.14
2023-04-30T10:00:18.349Z,1019.16
2023-04-30T10:01:18.402Z,1019.12
2023-04-30T10:02:18.364Z,1019.15
2023-04-30T10:03:19.348Z,1019.11
2023-04-30T10:04:18.357Z,1019.12
2023-04-30T10:05:18.333Z,1019.10
2023-04-30T10:06:18.363Z,1019.03
2023-04-30T10:07:20.808Z,1019.08
2023-04-30T10:08:18.343Z,1019.09
2023-04-30T10:09:19.354Z,1019.02
2023-04-30T10:10:18.334Z,1019.08
2023-04-30T10:11:18.336Z,1019.07
2023-04-30T10:12:18.322Z,1019.07
2023-04-30T10:13:19.376Z,1019.11
2023-04-30T10:14:18.331Z,1019.08
2023-04-30T10:15:19.361Z,1019.08
2023-04-30T10:16:19.366Z,1019.07
2023-04-30T10:17:18.333Z,1019.11
2023-04-30T10:18:18.327Z,1019.06
2023-04-30T10:19:18.344Z,1019.04
2023-04-30T10:20:18.364Z,1019.03
2023-04-30T10:21:19.338Z,1019.05
2023-04-30T10:22:18.355Z,1019.05
2023-04-30T10:23:18.317Z,1019.05
2023-04-30T10:24:19.403Z,1019.02
2023-04-30T10:25:18.315Z,1019.05
2023-04-30T10:26:18.326Z,1019.02
2023-04-30T10:27:19.325Z,1018.99
2023-04-30T10:28:18.313Z,1018.96
2023-04-30T10:29:18.804Z,1019.01
2023-04-30T10:30:18.335Z,1019.02
2023-04-30T10:31:18.308Z,1019.07
2023-04-30T10:32:18.408Z,1019.03
2023-04-30T10:33:19.347Z,1019.06
2023-04-30T10:34:18.310Z,1019.02
2023-04-30T10:35:18.311Z,1019.00
2023-04-30T10:36:18.312Z,1019.00
2023-04-30T10:37:18.322Z,1019.02
2023-04-30T10:38:18.301Z,1018.99
2023-04-30T10:39:19.322Z,1018.92
2023-04-30T10:40:18.305Z,1018.91
2023-04-30T10:41:18.308Z,1018.93
2023-04-30T10:42:18.291Z,1018.92
2023-04-30T10:43:18.299Z,1018.87
2023-04-30T10:44:18.294Z,1018.86
2023-04-30T10:45:19.302Z,1018.87
2023-04-30T10:46:18.416Z,1018.84
2023-04-30T10:47:18.292Z,1018.85
2023-04-30T10:48:18.312Z,1018.79
2023-04-30T10:49:18.289Z,1018.82
2023-04-30T10:50:18.349Z,1018.82
2023-04-30T10:51:19.288Z,1018.82
2023-04-30T10:52:18.277Z,1018.86
2023-04-30T10:53:18.273Z,1018.83
2023-04-30T10:54:18.287Z,1018.81
2023-04-30T10:55:18.812Z,1018.80
2023-04-30T10:56:18.278Z,1018.82
2023-04-30T10:57:20.394Z,1018.82
2023-04-30T10:58:18.276Z,1018.80
2023-04-30T10:59:18.272Z,1018.73
2023-04-30T11:00:18.273Z,1018.67
2023-04-30T11:01:18.345Z,1018.75
2023-04-30T11:02:18.286Z,1018.79
2023-04-30T11:03:19.538Z,1018.75
2023-04-30T11:04:18.294Z,1018.71
2023-04-30T11:05:18.457Z,1018.70
2023-04-30T11:06:18.308Z,1018.73
2023-04-30T11:07:18.258Z,1018.72
2023-04-30T11:08:18.264Z,1018.74
2023-04-30T11:09:19.372Z,1018.72
2023-04-30T11:10:19.308Z,1018.74
2023-04-30T11:11:18.813Z,1018.70
2023-04-30T11:12:18.288Z,1018.67
2023-04-30T11:13:18.258Z,1018.68
2023-04-30T11:14:18.282Z,1018.67
2023-04-30T11:15:19.262Z,1018.71
2023-04-30T11:16:18.278Z,1018.68
2023-04-30T11:17:18.256Z,1018.68
2023-04-30T11:18:18.243Z,1018.63
2023-04-30T11:19:18.811Z,1018.62
2023-04-30T11:20:18.812Z,1018.62
2023-04-30T11:21:19.809Z,1018.61
2023-04-30T11:22:18.256Z,1018.60
2023-04-30T11:23:25.332Z,1018.59
2023-04-30T11:24:18.248Z,1018.60
2023-04-30T11:25:18.251Z,1018.62
2023-04-30T11:26:18.733Z,1018.61
2023-04-30T11:27:19.320Z,1018.63
2023-04-30T11:28:18.228Z,1018.61
2023-04-30T11:29:18.274Z,1018.57
2023-04-30T11:30:18.219Z,1018.60
2023-04-30T11:31:18.274Z,1018.54
2023-04-30T11:32:18.282Z,1018.58
2023-04-30T11:33:19.254Z,1018.59
2023-04-30T11:34:18.255Z,1018.59
2023-04-30T11:35:18.241Z,1018.57
2023-04-30T11:36:18.221Z,1018.56
2023-04-30T11:37:18.827Z,1018.53
2023-04-30T11:38:18.220Z,1018.53
2023-04-30T11:39:19.230Z,1018.57
2023-04-30T11:40:18.210Z,1018.63
2023-04-30T11:41:18.825Z,1018.56
2023-04-30T11:42:18.215Z,1018.55
2023-04-30T11:43:18.209Z,1018.60
2023-04-30T11:44:18.211Z,1018.58
2023-04-30T11:45:19.824Z,1018.56
2023-04-30T11:46:18.228Z,1018.58
2023-04-30T11:47:18.198Z,1018.54
2023-04-30T11:48:18.195Z,1018.53
2023-04-30T11:49:18.219Z,1018.51
2023-04-30T11:50:18.204Z,1018.54
2023-04-30T11:51:19.225Z,1018.55
2023-04-30T11:52:18.196Z,1018.49
2023-04-30T11:53:18.230Z,1018.46
2023-04-30T11:54:18.189Z,1018.48
2023-04-30T11:55:18.215Z,1018.50
2023-04-30T11:56:18.203Z,1018.47
2023-04-30T11:57:19.208Z,1018.41
2023-04-30T11:58:18.188Z,1018.48
2023-04-30T11:59:18.835Z,1018.44
2023-04-30T12:00:18.200Z,1018.44
2023-04-30T12:01:18.199Z,1018.44
2023-04-30T12:02:18.264Z,1018.42
2023-04-30T12:03:19.307Z,1018.39
2023-04-30T12:04:18.877Z,1018.39
2023-04-30T12:05:19.393Z,1018.41